sensor_id;sensor_type;location;lat;lon;timestamp;pressure;altitude;pressure_sealevel;temperature;humidity
61742;BME280;47650;49.848;9.620;2023-05-06T00:02:10;99649.09;;;14.30;98.77
61742;BME280;47650;49.848;9.620;2023-05-06T00:04:37;99630.59;;;14.28;98.33
61742;BME280;47650;49.848;9.620;2023-05-06T00:07:07;99635.06;;;14.44;97.86
61742;BME280;47650;49.848;9.620;2023-05-06T00:09:33;99631.94;;;14.16;94.25
61742;BME280;47650;49.848;9.620;2023-05-06T00:12:00;99644.09;;;14.43;95.44
61742;BME280;47650;49.848;9.620;2023-05-06T00:14:25;99623.78;;;14.18;94.11
61742;BME280;47650;49.848;9.620;2023-05-06T00:16:52;99648.06;;;14.47;95.75
61742;BME280;47650;49.848;9.620;2023-05-06T00:19:20;99639.41;;;14.54;96.21
61742;BME280;47650;49.848;9.620;2023-05-06T00:21:48;99629.06;;;14.42;94.54
61742;BME280;47650;49.848;9.620;2023-05-06T00:24:13;99611.75;;;14.46;95.23
61742;BME280;47650;49.848;9.620;2023-05-06T00:26:38;99591.06;;;14.40;95.86
61742;BME280;47650;49.848;9.620;2023-05-06T00:29:05;99612.72;;;14.54;95.44
61742;BME280;47650;49.848;9.620;2023-05-06T00:31:30;99605.22;;;14.49;94.87
61742;BME280;47650;49.848;9.620;2023-05-06T00:33:56;99578.78;;;14.23;94.94
61742;BME280;47650;49.848;9.620;2023-05-06T00:36:21;99585.44;;;14.19;95.42
61742;BME280;47650;49.848;9.620;2023-05-06T00:38:46;99617.09;;;14.30;95.02
61742;BME280;47650;49.848;9.620;2023-05-06T00:41:12;99625.44;;;14.19;94.62
61742;BME280;47650;49.848;9.620;2023-05-06T00:43:39;99573.50;;;13.90;95.48
61742;BME280;47650;49.848;9.620;2023-05-06T00:46:05;99617.47;;;14.10;95.62
61742;BME280;47650;49.848;9.620;2023-05-06T00:48:33;99624.47;;;13.95;97.14
61742;BME280;47650;49.848;9.620;2023-05-06T00:51:01;99612.44;;;13.58;97.38
61742;BME280;47650;49.848;9.620;2023-05-06T00:53:26;99567.31;;;13.40;99.73
61742;BME280;47650;49.848;9.620;2023-05-06T00:55:52;99629.13;;;14.01;99.09
61742;BME280;47650;49.848;9.620;2023-05-06T00:58:19;99625.28;;;13.96;99.79
61742;BME280;47650;49.848;9.620;2023-05-06T01:00:45;99595.31;;;13.94;100.00
61742;BME280;47650;49.848;9.620;2023-05-06T01:03:11;99511.56;;;13.47;100.00
61742;BME280;47650;49.848;9.620;2023-05-06T01:08:40;99607.63;;;14.19;98.55
61742;BME280;47650;49.848;9.620;2023-05-06T01:11:13;99624.13;;;14.23;98.69
61742;BME280;47650;49.848;9.620;2023-05-06T01:17:04;99572.81;;;14.13;98.63
61742;BME280;47650;49.848;9.620;2023-05-06T01:19:47;99618.72;;;14.47;97.39
61742;BME280;47650;49.848;9.620;2023-05-06T01:22:19;99560.44;;;14.20;97.11
61742;BME280;47650;49.848;9.620;2023-05-06T01:24:47;99598.09;;;14.41;96.56
61742;BME280;47650;49.848;9.620;2023-05-06T01:27:13;99594.72;;;14.39;96.48
61742;BME280;47650;49.848;9.620;2023-05-06T01:29:43;99582.09;;;14.33;96.10
61742;BME280;47650;49.848;9.620;2023-05-06T01:35:23;99602.28;;;14.27;95.64
61742;BME280;47650;49.848;9.620;2023-05-06T01:40:41;99614.94;;;14.25;95.16
61742;BME280;47650;49.848;9.620;2023-05-06T01:43:09;99627.13;;;14.20;95.26
61742;BME280;47650;49.848;9.620;2023-05-06T01:45:38;99613.13;;;14.01;94.08
61742;BME280;47650;49.848;9.620;2023-05-06T01:48:06;99615.13;;;13.99;94.62
61742;BME280;47650;49.848;9.620;2023-05-06T01:50:33;99594.47;;;13.85;94.72
61742;BME280;47650;49.848;9.620;2023-05-06T01:53:01;99618.81;;;13.90;94.73
61742;BME280;47650;49.848;9.620;2023-05-06T01:55:27;99621.31;;;13.83;94.65
61742;BME280;47650;49.848;9.620;2023-05-06T01:57:57;99613.28;;;13.67;94.86
61742;BME280;47650;49.848;9.620;2023-05-06T02:00:24;99620.78;;;13.63;95.25
61742;BME280;47650;49.848;9.620;2023-05-06T02:02:56;99611.78;;;13.56;95.09
61742;BME280;47650;49.848;9.620;2023-05-06T02:05:22;99629.13;;;13.60;95.43
61742;BME280;47650;49.848;9.620;2023-05-06T02:07:48;99568.41;;;13.21;95.37
61742;BME280;47650;49.848;9.620;2023-05-06T02:10:15;99596.59;;;13.32;95.01
61742;BME280;47650;49.848;9.620;2023-05-06T02:12:41;99509.41;;;12.67;95.10
61742;BME280;47650;49.848;9.620;2023-05-06T02:15:08;99626.38;;;13.35;95.00
61742;BME280;47650;49.848;9.620;2023-05-06T02:17:37;99625.06;;;13.31;95.42
61742;BME280;47650;49.848;9.620;2023-05-06T02:20:04;99611.84;;;13.22;95.33
61742;BME280;47650;49.848;9.620;2023-05-06T02:22:32;99584.00;;;13.00;95.15
61742;BME280;47650;49.848;9.620;2023-05-06T02:24:57;99601.47;;;13.02;94.96
61742;BME280;47650;49.848;9.620;2023-05-06T02:29:50;99550.97;;;12.68;94.82
61742;BME280;47650;49.848;9.620;2023-05-06T02:32:24;99625.72;;;12.91;93.35
61742;BME280;47650;49.848;9.620;2023-05-06T02:34:50;99629.38;;;12.90;93.18
61742;BME280;47650;49.848;9.620;2023-05-06T02:37:20;99574.22;;;12.66;93.92
61742;BME280;47650;49.848;9.620;2023-05-06T02:39:45;99628.22;;;12.92;94.36
61742;BME280;47650;49.848;9.620;2023-05-06T02:42:14;99587.47;;;12.57;94.32
61742;BME280;47650;49.848;9.620;2023-05-06T02:44:40;99632.16;;;12.80;94.63
61742;BME280;47650;49.848;9.620;2023-05-06T02:47:06;99629.28;;;12.73;94.33
61742;BME280;47650;49.848;9.620;2023-05-06T02:49:32;99599.09;;;12.48;94.23
61742;BME280;47650;49.848;9.620;2023-05-06T02:52:05;99618.41;;;12.58;94.89
61742;BME280;47650;49.848;9.620;2023-05-06T02:54:30;99628.91;;;12.60;94.66
61742;BME280;47650;49.848;9.620;2023-05-06T02:56:58;99590.31;;;12.30;94.52
61742;BME280;47650;49.848;9.620;2023-05-06T02:59:24;99624.84;;;12.48;94.73
61742;BME280;47650;49.848;9.620;2023-05-06T03:01:50;99621.81;;;12.43;94.55
61742;BME280;47650;49.848;9.620;2023-05-06T03:04:17;99624.47;;;12.16;93.86
61742;BME280;47650;49.848;9.620;2023-05-06T03:06:42;99545.09;;;11.77;95.10
61742;BME280;47650;49.848;9.620;2023-05-06T03:09:07;99632.88;;;12.30;95.70
61742;BME280;47650;49.848;9.620;2023-05-06T03:11:33;99633.88;;;12.29;94.98
61742;BME280;47650;49.848;9.620;2023-05-06T03:13:59;99609.16;;;12.10;95.47
61742;BME280;47650;49.848;9.620;2023-05-06T03:16:24;99627.28;;;12.15;94.32
61742;BME280;47650;49.848;9.620;2023-05-06T03:18:50;99595.25;;;11.98;94.50
61742;BME280;47650;49.848;9.620;2023-05-06T03:21:18;99553.38;;;11.74;94.77
61742;BME280;47650;49.848;9.620;2023-05-06T03:23:43;99627.69;;;12.28;94.72
61742;BME280;47650;49.848;9.620;2023-05-06T03:26:08;99509.91;;;11.57;94.98
61742;BME280;47650;49.848;9.620;2023-05-06T03:28:35;99631.94;;;12.39;94.87
61742;BME280;47650;49.848;9.620;2023-05-06T03:31:02;99641.25;;;12.43;94.74
61742;BME280;47650;49.848;9.620;2023-05-06T03:33:31;99622.28;;;12.38;94.92
61742;BME280;47650;49.848;9.620;2023-05-06T03:35:56;99638.69;;;12.59;94.87
61742;BME280;47650;49.848;9.620;2023-05-06T03:38:23;99597.38;;;12.39;94.77
61742;BME280;47650;49.848;9.620;2023-05-06T03:40:51;99563.91;;;12.28;94.89
61742;BME280;47650;49.848;9.620;2023-05-06T03:43:17;99645.50;;;12.88;94.62
61742;BME280;47650;49.848;9.620;2023-05-06T03:45:43;99640.22;;;12.96;94.00
61742;BME280;47650;49.848;9.620;2023-05-06T03:48:10;99634.06;;;12.96;93.40
61742;BME280;47650;49.848;9.620;2023-05-06T03:50:37;99614.59;;;12.95;93.94
61742;BME280;47650;49.848;9.620;2023-05-06T03:53:03;99650.47;;;13.26;93.99
61742;BME280;47650;49.848;9.620;2023-05-06T03:55:29;99633.31;;;13.28;93.89
61742;BME280;47650;49.848;9.620;2023-05-06T03:57:55;99640.88;;;13.33;92.17
61742;BME280;47650;49.848;9.620;2023-05-06T04:00:20;99574.34;;;12.98;92.37
61742;BME280;47650;49.848;9.620;2023-05-06T04:02:46;99627.75;;;13.40;91.82
61742;BME280;47650;49.848;9.620;2023-05-06T04:05:13;99529.09;;;12.90;91.97
61742;BME280;47650;49.848;9.620;2023-05-06T04:07:38;99648.94;;;13.66;92.16
61742;BME280;47650;49.848;9.620;2023-05-06T04:10:04;99646.44;;;13.72;91.83
61742;BME280;47650;49.848;9.620;2023-05-06T04:12:30;99562.44;;;13.27;91.25
61742;BME280;47650;49.848;9.620;2023-05-06T04:14:55;99648.44;;;13.87;91.17
61742;BME280;47650;49.848;9.620;2023-05-06T04:17:21;99653.28;;;13.83;89.96
61742;BME280;47650;49.848;9.620;2023-05-06T04:19:47;99602.97;;;13.56;89.88
61742;BME280;47650;49.848;9.620;2023-05-06T04:22:12;99661.78;;;13.95;90.47
61742;BME280;47650;49.848;9.620;2023-05-06T04:24:37;99663.44;;;14.04;90.79
61742;BME280;47650;49.848;9.620;2023-05-06T04:27:04;99622.13;;;13.92;90.45
61742;BME280;47650;49.848;9.620;2023-05-06T04:29:29;99642.78;;;14.06;89.70
61742;BME280;47650;49.848;9.620;2023-05-06T04:31:57;99666.44;;;14.26;89.84
61742;BME280;47650;49.848;9.620;2023-05-06T04:34:22;99669.94;;;14.26;88.07
61742;BME280;47650;49.848;9.620;2023-05-06T04:36:49;99649.75;;;14.24;87.58
61742;BME280;47650;49.848;9.620;2023-05-06T04:39:15;99666.09;;;14.37;88.02
61742;BME280;47650;49.848;9.620;2023-05-06T04:41:43;99651.44;;;14.25;87.21
61742;BME280;47650;49.848;9.620;2023-05-06T04:44:10;99670.09;;;14.33;86.17
61742;BME280;47650;49.848;9.620;2023-05-06T04:46:37;99532.34;;;13.35;83.93
61742;BME280;47650;49.848;9.620;2023-05-06T04:49:02;99665.44;;;14.27;85.46
61742;BME280;47650;49.848;9.620;2023-05-06T04:51:28;99629.81;;;14.03;86.94
61742;BME280;47650;49.848;9.620;2023-05-06T04:53:54;99673.44;;;14.35;85.11
61742;BME280;47650;49.848;9.620;2023-05-06T04:56:20;99652.63;;;14.06;84.74
61742;BME280;47650;49.848;9.620;2023-05-06T04:58:47;99685.09;;;14.34;84.40
61742;BME280;47650;49.848;9.620;2023-05-06T05:01:15;99667.78;;;14.30;84.33
61742;BME280;47650;49.848;9.620;2023-05-06T05:03:44;99641.44;;;14.19;87.39
61742;BME280;47650;49.848;9.620;2023-05-06T05:06:12;99693.78;;;14.61;87.92
61742;BME280;47650;49.848;9.620;2023-05-06T05:08:38;99672.25;;;14.54;87.64
61742;BME280;47650;49.848;9.620;2023-05-06T05:11:07;99700.59;;;14.80;87.62
61742;BME280;47650;49.848;9.620;2023-05-06T05:13:36;99674.72;;;14.72;86.39
61742;BME280;47650;49.848;9.620;2023-05-06T05:16:02;99659.72;;;14.79;85.51
61742;BME280;47650;49.848;9.620;2023-05-06T05:18:28;99696.78;;;15.14;85.14
61742;BME280;47650;49.848;9.620;2023-05-06T05:20:55;99686.22;;;15.29;85.46
61742;BME280;47650;49.848;9.620;2023-05-06T05:23:20;99692.56;;;15.28;83.47
61742;BME280;47650;49.848;9.620;2023-05-06T05:25:46;99699.78;;;15.50;83.80
61742;BME280;47650;49.848;9.620;2023-05-06T05:28:11;99641.94;;;15.34;84.67
61742;BME280;47650;49.848;9.620;2023-05-06T05:30:37;99524.59;;;14.78;85.63
61742;BME280;47650;49.848;9.620;2023-05-06T05:33:02;99697.25;;;15.88;83.10
61742;BME280;47650;49.848;9.620;2023-05-06T05:35:27;99688.72;;;15.93;81.53
61742;BME280;47650;49.848;9.620;2023-05-06T05:37:53;99700.44;;;15.92;81.87
61742;BME280;47650;49.848;9.620;2023-05-06T05:40:19;99661.66;;;15.65;82.62
61742;BME280;47650;49.848;9.620;2023-05-06T05:42:44;99703.69;;;16.02;81.85
61742;BME280;47650;49.848;9.620;2023-05-06T05:45:10;99645.78;;;15.63;80.43
61742;BME280;47650;49.848;9.620;2023-05-06T05:47:36;99717.75;;;14.53;80.43
61742;BME280;47650;49.848;9.620;2023-05-06T05:50:01;99713.28;;;15.26;81.18
61742;BME280;47650;49.848;9.620;2023-05-06T05:52:28;99707.94;;;15.26;80.25
61742;BME280;47650;49.848;9.620;2023-05-06T05:54:53;99670.06;;;14.58;80.59
61742;BME280;47650;49.848;9.620;2023-05-06T05:57:19;99704.59;;;15.63;82.69
61742;BME280;47650;49.848;9.620;2023-05-06T05:59:46;99699.59;;;15.20;79.86
61742;BME280;47650;49.848;9.620;2023-05-06T06:02:11;99691.44;;;14.33;82.36
61742;BME280;47650;49.848;9.620;2023-05-06T06:04:36;99691.25;;;14.10;83.73
61742;BME280;47650;49.848;9.620;2023-05-06T06:07:01;99718.78;;;14.10;85.12
61742;BME280;47650;49.848;9.620;2023-05-06T06:09:27;99710.69;;;15.01;84.92
61742;BME280;47650;49.848;9.620;2023-05-06T06:11:53;99583.78;;;14.01;83.00
61742;BME280;47650;49.848;9.620;2023-05-06T06:14:18;99661.09;;;14.34;83.38
61742;BME280;47650;49.848;9.620;2023-05-06T06:16:44;99715.28;;;15.23;83.30
61742;BME280;47650;49.848;9.620;2023-05-06T06:19:09;99698.22;;;14.85;83.75
61742;BME280;47650;49.848;9.620;2023-05-06T06:21:35;99691.88;;;14.86;81.33
61742;BME280;47650;49.848;9.620;2023-05-06T06:24:02;99717.25;;;14.33;83.51
61742;BME280;47650;49.848;9.620;2023-05-06T06:26:29;99687.78;;;14.18;85.02
61742;BME280;47650;49.848;9.620;2023-05-06T06:28:54;99623.13;;;13.75;86.10
61742;BME280;47650;49.848;9.620;2023-05-06T06:31:19;99666.13;;;14.21;87.32
61742;BME280;47650;49.848;9.620;2023-05-06T06:33:46;99703.63;;;14.60;84.33
61742;BME280;47650;49.848;9.620;2023-05-06T06:36:15;99666.56;;;14.57;83.74
61742;BME280;47650;49.848;9.620;2023-05-06T06:38:40;99712.78;;;14.66;85.62
61742;BME280;47650;49.848;9.620;2023-05-06T06:41:06;99648.41;;;14.44;85.50
61742;BME280;47650;49.848;9.620;2023-05-06T06:43:31;99704.56;;;15.40;86.21
61742;BME280;47650;49.848;9.620;2023-05-06T06:45:57;99644.63;;;14.95;85.92
61742;BME280;47650;49.848;9.620;2023-05-06T06:48:22;99696.22;;;15.35;85.14
61742;BME280;47650;49.848;9.620;2023-05-06T06:50:47;99718.50;;;15.50;82.37
61742;BME280;47650;49.848;9.620;2023-05-06T06:53:13;99719.25;;;15.75;82.22
61742;BME280;47650;49.848;9.620;2023-05-06T06:55:42;99713.06;;;16.21;81.21
61742;BME280;47650;49.848;9.620;2023-05-06T06:58:08;99692.06;;;15.32;82.22
61742;BME280;47650;49.848;9.620;2023-05-06T07:00:34;99710.59;;;15.96;83.07
61742;BME280;47650;49.848;9.620;2023-05-06T07:05:28;99644.38;;;15.52;79.63
61742;BME280;47650;49.848;9.620;2023-05-06T07:07:54;99617.88;;;16.12;80.56
61742;BME280;47650;49.848;9.620;2023-05-06T07:10:20;99716.19;;;16.86;78.96
61742;BME280;47650;49.848;9.620;2023-05-06T07:12:47;99652.81;;;16.63;76.73
61742;BME280;47650;49.848;9.620;2023-05-06T07:15:12;99696.44;;;17.17;77.49
61742;BME280;47650;49.848;9.620;2023-05-06T07:17:38;99694.41;;;16.89;72.91
61742;BME280;47650;49.848;9.620;2023-05-06T07:20:05;99682.41;;;16.85;73.69
61742;BME280;47650;49.848;9.620;2023-05-06T07:22:30;99721.00;;;17.72;74.60
61742;BME280;47650;49.848;9.620;2023-05-06T07:24:56;99689.06;;;17.92;73.12
61742;BME280;47650;49.848;9.620;2023-05-06T07:27:21;99688.50;;;18.18;72.61
61742;BME280;47650;49.848;9.620;2023-05-06T07:29:49;99707.84;;;18.63;69.71
61742;BME280;47650;49.848;9.620;2023-05-06T07:32:15;99711.72;;;18.82;69.42
61742;BME280;47650;49.848;9.620;2023-05-06T07:34:42;99708.63;;;19.20;69.84
61742;BME280;47650;49.848;9.620;2023-05-06T07:37:19;99648.13;;;18.89;67.05
61742;BME280;47650;49.848;9.620;2023-05-06T07:39:44;99704.63;;;19.51;63.83
61742;BME280;47650;49.848;9.620;2023-05-06T07:42:11;99707.94;;;19.53;62.64
61742;BME280;47650;49.848;9.620;2023-05-06T07:44:38;99637.59;;;18.59;61.28
61742;BME280;47650;49.848;9.620;2023-05-06T07:47:04;99701.38;;;19.62;62.83
61742;BME280;47650;49.848;9.620;2023-05-06T07:49:30;99714.06;;;18.92;60.80
61742;BME280;47650;49.848;9.620;2023-05-06T07:51:57;99719.97;;;19.09;60.66
61742;BME280;47650;49.848;9.620;2023-05-06T07:54:22;99716.22;;;19.51;59.04
61742;BME280;47650;49.848;9.620;2023-05-06T07:57:00;99706.47;;;19.99;59.07
61742;BME280;47650;49.848;9.620;2023-05-06T07:59:29;99711.88;;;20.32;57.95
61742;BME280;47650;49.848;9.620;2023-05-06T08:01:54;99727.56;;;18.98;59.14
61742;BME280;47650;49.848;9.620;2023-05-06T08:04:21;99721.25;;;19.68;57.74
61742;BME280;47650;49.848;9.620;2023-05-06T08:06:47;99723.47;;;20.26;57.67
61742;BME280;47650;49.848;9.620;2023-05-06T08:09:13;99704.44;;;20.61;55.78
61742;BME280;47650;49.848;9.620;2023-05-06T08:11:39;99713.81;;;21.37;55.51
61742;BME280;47650;49.848;9.620;2023-05-06T08:14:04;99711.97;;;21.31;51.92
61742;BME280;47650;49.848;9.620;2023-05-06T08:16:29;99720.28;;;21.22;51.24
61742;BME280;47650;49.848;9.620;2023-05-06T08:18:54;99716.81;;;19.95;54.74
61742;BME280;47650;49.848;9.620;2023-05-06T08:21:20;99700.63;;;20.95;53.97
61742;BME280;47650;49.848;9.620;2023-05-06T08:23:45;99717.84;;;21.66;51.70
61742;BME280;47650;49.848;9.620;2023-05-06T08:26:11;99719.44;;;21.81;51.40
61742;BME280;47650;49.848;9.620;2023-05-06T08:28:38;99691.72;;;22.30;49.84
61742;BME280;47650;49.848;9.620;2023-05-06T08:31:06;99709.97;;;23.22;48.04
61742;BME280;47650;49.848;9.620;2023-05-06T08:33:31;99697.59;;;23.82;46.68
61742;BME280;47650;49.848;9.620;2023-05-06T08:35:57;99712.75;;;23.16;45.30
61742;BME280;47650;49.848;9.620;2023-05-06T08:38:24;99719.31;;;22.83;45.43
61742;BME280;47650;49.848;9.620;2023-05-06T08:40:51;99695.19;;;22.06;49.62
61742;BME280;47650;49.848;9.620;2023-05-06T08:43:19;99714.53;;;22.34;48.46
61742;BME280;47650;49.848;9.620;2023-05-06T08:45:45;99709.31;;;23.08;47.75
61742;BME280;47650;49.848;9.620;2023-05-06T08:48:11;99694.66;;;23.16;45.26
61742;BME280;47650;49.848;9.620;2023-05-06T08:50:41;99655.72;;;23.66;43.71
61742;BME280;47650;49.848;9.620;2023-05-06T08:53:11;99697.72;;;24.53;44.97
61742;BME280;47650;49.848;9.620;2023-05-06T08:55:39;99696.59;;;23.76;42.49
61742;BME280;47650;49.848;9.620;2023-05-06T08:58:05;99700.44;;;24.53;41.66
61742;BME280;47650;49.848;9.620;2023-05-06T09:00:31;99695.34;;;25.15;41.60
61742;BME280;47650;49.848;9.620;2023-05-06T09:02:57;99682.19;;;26.22;39.05
61742;BME280;47650;49.848;9.620;2023-05-06T09:05:22;99656.84;;;27.12;37.21
61742;BME280;47650;49.848;9.620;2023-05-06T09:07:47;99680.22;;;27.79;36.39
61742;BME280;47650;49.848;9.620;2023-05-06T09:10:14;99657.34;;;27.09;35.73
61742;BME280;47650;49.848;9.620;2023-05-06T09:12:43;99620.81;;;28.46;34.12
61742;BME280;47650;49.848;9.620;2023-05-06T09:15:11;99678.47;;;29.96;32.32
61742;BME280;47650;49.848;9.620;2023-05-06T09:17:37;99671.00;;;31.99;28.50
61742;BME280;47650;49.848;9.620;2023-05-06T09:20:05;99666.69;;;32.86;24.96
61742;BME280;47650;49.848;9.620;2023-05-06T09:22:36;99660.47;;;34.33;23.36
61742;BME280;47650;49.848;9.620;2023-05-06T09:25:04;99676.00;;;29.79;28.01
61742;BME280;47650;49.848;9.620;2023-05-06T09:27:32;99665.91;;;30.42;27.19
61742;BME280;47650;49.848;9.620;2023-05-06T09:30:10;99669.25;;;32.19;24.63
61742;BME280;47650;49.848;9.620;2023-05-06T09:32:36;99661.44;;;32.31;24.30
61742;BME280;47650;49.848;9.620;2023-05-06T09:35:03;99660.47;;;34.00;22.06
61742;BME280;47650;49.848;9.620;2023-05-06T09:37:29;99661.09;;;36.36;19.87
61742;BME280;47650;49.848;9.620;2023-05-06T09:39:56;99647.47;;;37.29;20.11
61742;BME280;47650;49.848;9.620;2023-05-06T09:42:26;99658.63;;;33.57;22.86
61742;BME280;47650;49.848;9.620;2023-05-06T09:44:54;99671.56;;;30.81;26.38
61742;BME280;47650;49.848;9.620;2023-05-06T09:47:33;99657.66;;;32.80;24.61
61742;BME280;47650;49.848;9.620;2023-05-06T09:50:01;99650.47;;;34.70;22.23
61742;BME280;47650;49.848;9.620;2023-05-06T09:52:27;99666.31;;;31.05;27.41
61742;BME280;47650;49.848;9.620;2023-05-06T09:54:54;99669.41;;;28.54;28.14
61742;BME280;47650;49.848;9.620;2023-05-06T09:57:20;99674.31;;;28.52;27.70
61742;BME280;47650;49.848;9.620;2023-05-06T09:59:46;99669.03;;;28.40;29.19
61742;BME280;47650;49.848;9.620;2023-05-06T10:02:13;99676.25;;;28.19;30.30
61742;BME280;47650;49.848;9.620;2023-05-06T10:04:40;99674.88;;;26.96;30.99
61742;BME280;47650;49.848;9.620;2023-05-06T10:07:08;99666.38;;;28.13;29.14
61742;BME280;47650;49.848;9.620;2023-05-06T10:09:37;99628.44;;;30.42;27.63
61742;BME280;47650;49.848;9.620;2023-05-06T10:12:05;99662.34;;;28.21;27.93
61742;BME280;47650;49.848;9.620;2023-05-06T10:14:31;99664.75;;;28.12;28.37
61742;BME280;47650;49.848;9.620;2023-05-06T10:16:57;99665.16;;;27.99;29.13
61742;BME280;47650;49.848;9.620;2023-05-06T10:19:23;99659.00;;;28.88;28.96
61742;BME280;47650;49.848;9.620;2023-05-06T10:22:33;99609.56;;;32.05;24.19
61742;BME280;47650;49.848;9.620;2023-05-06T10:27:58;99621.09;;;37.05;17.91
61742;BME280;47650;49.848;9.620;2023-05-06T10:30:26;99615.59;;;38.87;15.87
61742;BME280;47650;49.848;9.620;2023-05-06T10:32:58;99577.97;;;37.91;17.95
61742;BME280;47650;49.848;9.620;2023-05-06T10:35:55;99596.16;;;32.82;21.20
61742;BME280;47650;49.848;9.620;2023-05-06T10:40:50;99600.63;;;28.47;26.82
61742;BME280;47650;49.848;9.620;2023-05-06T10:43:30;99652.50;;;25.29;30.42
61742;BME280;47650;49.848;9.620;2023-05-06T10:46:14;99649.41;;;26.12;30.14
61742;BME280;47650;49.848;9.620;2023-05-06T10:51:41;99627.47;;;29.18;27.57
61742;BME280;47650;49.848;9.620;2023-05-06T10:59:16;99603.13;;;34.67;19.71
61742;BME280;47650;49.848;9.620;2023-05-06T11:01:55;99620.13;;;30.73;24.03
61742;BME280;47650;49.848;9.620;2023-05-06T11:04:21;99596.31;;;31.39;23.41
61742;BME280;47650;49.848;9.620;2023-05-06T11:06:52;99590.91;;;32.08;23.28
61742;BME280;47650;49.848;9.620;2023-05-06T11:09:22;99589.31;;;36.76;18.72
61742;BME280;47650;49.848;9.620;2023-05-06T11:12:02;99602.75;;;32.80;21.39
61742;BME280;47650;49.848;9.620;2023-05-06T11:16:59;99585.28;;;38.05;17.10
61742;BME280;47650;49.848;9.620;2023-05-06T11:19:30;99586.94;;;39.13;15.35
61742;BME280;47650;49.848;9.620;2023-05-06T11:21:59;99592.72;;;34.37;19.11
61742;BME280;47650;49.848;9.620;2023-05-06T11:24:32;99583.25;;;38.70;16.28
61742;BME280;47650;49.848;9.620;2023-05-06T11:27:02;99581.44;;;37.53;16.67
61742;BME280;47650;49.848;9.620;2023-05-06T11:29:27;99595.06;;;34.10;20.19
61742;BME280;47650;49.848;9.620;2023-05-06T11:31:53;99608.72;;;29.63;24.95
61742;BME280;47650;49.848;9.620;2023-05-06T11:34:28;99611.50;;;28.42;27.04
61742;BME280;47650;49.848;9.620;2023-05-06T11:37:05;99620.28;;;27.52;27.56
61742;BME280;47650;49.848;9.620;2023-05-06T11:39:33;99609.75;;;29.31;25.50
61742;BME280;47650;49.848;9.620;2023-05-06T11:42:02;99600.84;;;28.83;26.77
61742;BME280;47650;49.848;9.620;2023-05-06T11:44:48;99619.88;;;26.55;30.03
61742;BME280;47650;49.848;9.620;2023-05-06T11:47:15;99613.03;;;25.96;31.96
61742;BME280;47650;49.848;9.620;2023-05-06T11:49:54;99629.00;;;25.64;32.57
61742;BME280;47650;49.848;9.620;2023-05-06T11:52:23;99618.09;;;25.18;32.13
61742;BME280;47650;49.848;9.620;2023-05-06T11:54:50;99617.41;;;25.68;31.92
61742;BME280;47650;49.848;9.620;2023-05-06T11:57:19;99623.75;;;25.28;31.74
61742;BME280;47650;49.848;9.620;2023-05-06T11:59:44;99603.47;;;24.08;33.17
61742;BME280;47650;49.848;9.620;2023-05-06T12:02:12;99598.88;;;24.20;33.02
61742;BME280;47650;49.848;9.620;2023-05-06T12:04:45;99632.41;;;24.19;32.79
61742;BME280;47650;49.848;9.620;2023-05-06T12:07:13;99566.31;;;24.79;33.30
61742;BME280;47650;49.848;9.620;2023-05-06T12:09:46;99616.94;;;26.39;32.35
61742;BME280;47650;49.848;9.620;2023-05-06T12:12:18;99556.50;;;26.93;30.01
61742;BME280;47650;49.848;9.620;2023-05-06T12:14:51;99577.50;;;27.47;28.21
61742;BME280;47650;49.848;9.620;2023-05-06T12:17:17;99520.31;;;28.17;26.83
61742;BME280;47650;49.848;9.620;2023-05-06T12:19:44;99577.59;;;30.10;24.33
61742;BME280;47650;49.848;9.620;2023-05-06T12:22:21;99577.78;;;33.58;20.26
61742;BME280;47650;49.848;9.620;2023-05-06T12:24:50;99578.03;;;34.41;19.33
61742;BME280;47650;49.848;9.620;2023-05-06T12:27:31;99576.91;;;34.56;19.01
61742;BME280;47650;49.848;9.620;2023-05-06T12:29:57;99471.84;;;31.55;21.58
61742;BME280;47650;49.848;9.620;2023-05-06T12:32:25;99530.91;;;30.82;22.25
61742;BME280;47650;49.848;9.620;2023-05-06T12:34:50;99591.38;;;29.06;24.71
61742;BME280;47650;49.848;9.620;2023-05-06T12:37:27;99589.47;;;30.76;23.18
61742;BME280;47650;49.848;9.620;2023-05-06T12:39:55;99579.00;;;30.99;23.76
61742;BME280;47650;49.848;9.620;2023-05-06T12:42:22;99523.19;;;30.89;22.56
61742;BME280;47650;49.848;9.620;2023-05-06T12:44:48;99585.59;;;30.92;22.81
61742;BME280;47650;49.848;9.620;2023-05-06T12:47:19;99535.22;;;30.93;22.16
61742;BME280;47650;49.848;9.620;2023-05-06T12:49:46;99581.72;;;32.47;22.43
61742;BME280;47650;49.848;9.620;2023-05-06T12:52:11;99580.53;;;33.01;22.17
61742;BME280;47650;49.848;9.620;2023-05-06T12:54:37;99505.72;;;35.28;18.18
61742;BME280;47650;49.848;9.620;2023-05-06T12:57:06;99578.38;;;34.07;18.98
61742;BME280;47650;49.848;9.620;2023-05-06T12:59:33;99555.44;;;33.08;20.40
61742;BME280;47650;49.848;9.620;2023-05-06T13:01:59;99586.19;;;33.29;21.00
61742;BME280;47650;49.848;9.620;2023-05-06T13:04:25;99505.38;;;32.00;21.82
61742;BME280;47650;49.848;9.620;2023-05-06T13:06:50;99591.13;;;30.77;23.04
61742;BME280;47650;49.848;9.620;2023-05-06T13:09:18;99501.44;;;30.64;22.83
61742;BME280;47650;49.848;9.620;2023-05-06T13:11:43;99589.63;;;31.60;22.53
61742;BME280;47650;49.848;9.620;2023-05-06T13:14:09;99585.22;;;31.59;22.12
61742;BME280;47650;49.848;9.620;2023-05-06T13:16:35;99589.03;;;31.68;23.24
61742;BME280;47650;49.848;9.620;2023-05-06T13:19:01;99582.19;;;30.51;23.27
61742;BME280;47650;49.848;9.620;2023-05-06T13:21:27;99555.47;;;29.86;24.05
61742;BME280;47650;49.848;9.620;2023-05-06T13:23:52;99525.59;;;30.46;24.04
61742;BME280;47650;49.848;9.620;2023-05-06T13:28:45;99578.13;;;29.46;25.87
61742;BME280;47650;49.848;9.620;2023-05-06T13:31:10;99570.47;;;29.48;24.74
61742;BME280;47650;49.848;9.620;2023-05-06T13:33:41;99567.69;;;30.30;24.75
61742;BME280;47650;49.848;9.620;2023-05-06T13:36:07;99507.91;;;30.08;26.67
61742;BME280;47650;49.848;9.620;2023-05-06T13:38:32;99492.56;;;30.17;23.60